Terminal Aerodrome Forecast
Issued by NWS

Home | Current Version | Previous Version | Text Only | Print | Product List | Glossary On
Versions: 1 2 3 4 5 6 7 8 9 10 11 12
400
FTUS46 KSGX 281721
TAFSNA
TAF
KSNA 281721Z 2818/2918 VRB03KT P6SM FEW010 FEW250
     FM281900 22009KT P6SM SCT200
     FM290200 VRB04KT P6SM FEW010
     FM291000 VRB03KT P6SM BKN009
     FM291500 VRB03KT P6SM SCT010=

USA.gov is the U.S. government's official web portal to all federal, state and local government web resources and services.